createdAt,value
2023-02-24T00:02:06.129Z,26.10
2023-02-24T00:07:10.945Z,29.20
2023-02-24T00:12:14.523Z,29.80
2023-02-24T00:17:16.294Z,38.20
2023-02-24T00:22:17.930Z,38.60
2023-02-24T00:27:19.872Z,39.90
2023-02-24T00:32:21.531Z,33.10
2023-02-24T00:37:24.088Z,43.50
2023-02-24T00:42:25.691Z,31.70
2023-02-24T00:47:27.190Z,20.90
2023-02-24T00:52:29.144Z,31.20
2023-02-24T00:57:30.811Z,62.90
2023-02-24T01:02:32.345Z,84.40
2023-02-24T01:07:34.263Z,67.40
2023-02-24T01:12:40.993Z,57.80
2023-02-24T01:17:42.576Z,44.00
2023-02-24T01:22:50.403Z,40.50
2023-02-24T01:27:53.700Z,29.10
2023-02-24T01:32:57.544Z,43.40
2023-02-24T01:38:01.726Z,35.40
2023-02-24T01:48:12.030Z,40.90
2023-02-24T01:53:14.104Z,35.60
2023-02-24T01:58:34.208Z,19.60
2023-02-24T02:03:41.881Z,46.20
2023-02-24T02:08:45.061Z,37.30
2023-02-24T02:13:50.540Z,40.80
2023-02-24T02:19:25.997Z,39.90
2023-02-24T02:24:37.671Z,42.80
2023-02-24T02:29:49.077Z,40.80
2023-02-24T02:35:14.244Z,41.80
2023-02-24T02:40:42.268Z,36.30
2023-02-24T02:45:56.071Z,40.80
2023-02-24T02:51:08.524Z,38.70
2023-02-24T02:56:21.784Z,49.10
2023-02-24T03:01:28.575Z,35.70
2023-02-24T03:07:02.304Z,43.40
2023-02-24T03:17:24.235Z,44.70
2023-02-24T03:22:39.666Z,46.70
2023-02-24T03:27:49.359Z,46.90
2023-02-24T03:33:05.266Z,46.10
2023-02-24T03:48:29.057Z,27.80
2023-02-24T03:53:36.397Z,33.30
2023-02-24T03:58:54.017Z,50.70
2023-02-24T04:04:17.293Z,46.70
2023-02-24T04:09:30.156Z,37.90
2023-02-24T04:14:39.184Z,45.40
2023-02-24T04:19:44.767Z,52.50
2023-02-24T04:24:50.238Z,52.20
2023-02-24T04:29:54.742Z,52.80
2023-02-24T04:35:09.550Z,44.20
2023-02-24T04:40:17.670Z,49.40
2023-02-24T04:45:22.109Z,47.90
2023-02-24T04:50:26.042Z,44.10
2023-02-24T04:55:33.021Z,45.80
2023-02-24T05:00:35.862Z,47.80
2023-02-24T05:05:37.769Z,48.40
2023-02-24T05:10:45.511Z,47.30
2023-02-24T05:15:48.379Z,41.90
2023-02-24T05:21:12.053Z,56.70
2023-02-24T05:26:17.037Z,48.40
2023-02-24T05:31:26.492Z,44.00
2023-02-24T05:36:34.962Z,41.20
2023-02-24T05:41:41.727Z,45.40
2023-02-24T05:46:46.622Z,49.70
2023-02-24T05:51:57.564Z,52.00
2023-02-24T05:57:05.259Z,54.40
2023-02-24T06:02:09.728Z,49.40
2023-02-24T06:07:14.029Z,54.80
2023-02-24T06:12:16.930Z,53.20
2023-02-24T06:17:19.003Z,59.70
2023-02-24T06:22:23.775Z,50.60
2023-02-24T06:27:25.766Z,50.00
2023-02-24T06:32:28.216Z,54.70
2023-02-24T06:37:30.112Z,48.90
2023-02-24T06:42:31.686Z,45.10
2023-02-24T06:47:33.230Z,50.90
2023-02-24T06:52:34.788Z,52.60
2023-02-24T06:57:36.278Z,54.70
2023-02-24T07:02:39.801Z,49.00
2023-02-24T07:07:46.836Z,51.20
2023-02-24T07:12:48.327Z,49.70
2023-02-24T07:17:50.825Z,48.90
2023-02-24T07:22:52.589Z,45.10
2023-02-24T07:27:54.085Z,50.40
2023-02-24T07:32:56.827Z,45.40
2023-02-24T07:38:02.198Z,53.80
2023-02-24T07:43:06.478Z,42.70
2023-02-24T07:48:08.006Z,44.30
2023-02-24T07:53:10.129Z,42.40
2023-02-24T07:58:11.686Z,40.30
2023-02-24T08:03:14.054Z,45.00
2023-02-24T08:08:21.060Z,40.30
2023-02-24T08:13:22.716Z,47.50
2023-02-24T08:18:24.243Z,43.10
2023-02-24T08:23:25.761Z,35.00
2023-02-24T08:28:27.366Z,43.60
2023-02-24T08:33:30.149Z,46.30
2023-02-24T08:38:42.182Z,34.80
2023-02-24T08:43:46.492Z,40.60
2023-02-24T08:48:51.130Z,37.30
2023-02-24T08:53:55.699Z,38.30
2023-02-24T08:59:06.245Z,32.90
2023-02-24T09:04:18.841Z,40.40
2023-02-24T09:09:21.421Z,34.50
2023-02-24T09:14:29.730Z,36.90
2023-02-24T09:19:47.667Z,40.90
2023-02-24T09:24:51.173Z,34.20
2023-02-24T09:29:53.162Z,33.30
2023-02-24T09:34:54.643Z,36.40
2023-02-24T09:39:56.131Z,32.80
2023-02-24T09:45:11.536Z,36.80
2023-02-24T09:50:55.063Z,33.80
2023-02-24T09:56:05.627Z,28.40
2023-02-24T10:01:33.570Z,25.50
2023-02-24T10:06:48.544Z,29.00
2023-02-24T10:12:18.989Z,33.70
2023-02-24T10:17:23.899Z,34.50
2023-02-24T10:22:35.005Z,34.60
2023-02-24T10:27:40.044Z,28.20
2023-02-24T10:32:58.837Z,30.40
2023-02-24T10:38:06.033Z,38.40
2023-02-24T10:43:17.872Z,29.60
2023-02-24T10:48:41.093Z,36.00
2023-02-24T10:53:53.070Z,47.00
2023-02-24T10:59:27.997Z,41.10
2023-02-24T11:04:58.459Z,51.30
2023-02-24T11:10:26.390Z,36.20
2023-02-24T11:15:59.182Z,33.30
2023-02-24T11:21:06.813Z,46.10
2023-02-24T11:26:32.384Z,43.60
2023-02-24T11:31:58.890Z,31.80
2023-02-24T11:37:21.098Z,36.20
2023-02-24T11:42:32.271Z,21.60
2023-02-24T11:47:43.495Z,13.30
2023-02-24T11:52:48.370Z,13.80
2023-02-24T11:57:54.587Z,14.40
2023-02-24T12:03:29.885Z,14.00
2023-02-24T12:08:42.285Z,8.30
2023-02-24T12:13:53.215Z,10.60
2023-02-24T12:19:18.600Z,9.50
2023-02-24T12:24:21.425Z,13.50
2023-02-24T12:29:42.452Z,12.70
2023-02-24T12:34:52.984Z,11.90
2023-02-24T12:40:04.315Z,11.70
2023-02-24T12:45:31.087Z,10.60
2023-02-24T12:50:48.249Z,8.40
2023-02-24T12:56:11.768Z,8.70
2023-02-24T13:01:44.923Z,9.10
2023-02-24T13:07:02.140Z,7.20
2023-02-24T13:12:11.479Z,11.30
2023-02-24T13:17:13.032Z,9.90
2023-02-24T13:22:15.529Z,10.70
2023-02-24T13:27:34.888Z,11.10
2023-02-24T13:32:39.344Z,9.00
2023-02-24T13:37:43.451Z,9.60
2023-02-24T13:42:56.872Z,12.10
2023-02-24T13:48:07.915Z,15.00
2023-02-24T13:53:09.544Z,17.80
2023-02-24T13:58:32.845Z,24.50
2023-02-24T14:03:36.063Z,24.90
2023-02-24T14:08:45.812Z,17.20
2023-02-24T14:13:52.281Z,15.90
2023-02-24T14:18:59.105Z,19.50
2023-02-24T14:24:05.279Z,19.70
2023-02-24T14:29:08.760Z,31.70
2023-02-24T14:34:17.939Z,25.20
2023-02-24T14:39:27.572Z,27.60
2023-02-24T14:44:30.199Z,20.80
2023-02-24T14:49:34.823Z,33.70
2023-02-24T14:54:57.148Z,28.10
2023-02-24T15:00:11.462Z,28.60
2023-02-24T15:05:13.111Z,23.60
2023-02-24T15:10:27.064Z,37.80
2023-02-24T15:15:34.597Z,39.00
2023-02-24T15:20:39.651Z,32.90
2023-02-24T15:25:45.128Z,42.60
2023-02-24T15:31:23.674Z,25.00
2023-02-24T15:36:28.779Z,31.30
2023-02-24T15:41:41.989Z,25.60
2023-02-24T15:46:43.596Z,31.00
2023-02-24T15:51:48.286Z,33.80
2023-02-24T15:56:50.166Z,57.60
2023-02-24T16:01:54.296Z,35.70
2023-02-24T16:06:58.004Z,33.90
2023-02-24T16:17:06.082Z,36.90
2023-02-24T16:22:10.314Z,43.20
2023-02-24T16:27:17.614Z,34.60
2023-02-24T16:32:22.248Z,34.50
2023-02-24T16:37:29.817Z,98.80
2023-02-24T16:42:31.623Z,63.20
2023-02-24T16:47:34.528Z,35.30
2023-02-24T16:52:36.076Z,30.00
2023-02-24T16:57:37.616Z,41.50
2023-02-24T17:02:41.728Z,29.20
2023-02-24T17:07:43.345Z,45.50
2023-02-24T17:12:45.648Z,30.20
2023-02-24T17:17:47.764Z,35.00
2023-02-24T17:22:49.391Z,35.70
2023-02-24T17:27:51.863Z,27.50
2023-02-24T17:32:53.660Z,31.10
2023-02-24T17:37:55.496Z,49.70
2023-02-24T17:42:56.992Z,26.60
2023-02-24T17:47:58.503Z,41.20
2023-02-24T17:53:00.039Z,44.10
2023-02-24T17:58:01.562Z,51.60
2023-02-24T18:03:03.696Z,47.00
2023-02-24T18:08:05.584Z,43.70
2023-02-24T18:13:07.246Z,30.30
2023-02-24T18:18:09.565Z,17.40
2023-02-24T18:23:12.549Z,16.80
2023-02-24T18:28:14.254Z,19.60
2023-02-24T18:33:15.924Z,20.50
2023-02-24T18:38:18.012Z,17.80
2023-02-24T18:43:19.485Z,17.30
2023-02-24T18:48:20.982Z,15.90
2023-02-24T18:53:23.825Z,19.80
2023-02-24T18:58:25.486Z,18.00
2023-02-24T19:03:27.173Z,18.00
2023-02-24T19:08:28.700Z,14.90
2023-02-24T19:13:30.821Z,24.70
2023-02-24T19:18:33.376Z,21.90
2023-02-24T19:23:36.126Z,24.70
2023-02-24T19:28:37.628Z,21.70
2023-02-24T19:33:39.145Z,27.00
2023-02-24T19:38:42.267Z,45.60
2023-02-24T19:43:44.316Z,37.00
2023-02-24T19:48:48.958Z,51.30
2023-02-24T19:53:58.734Z,43.90
2023-02-24T20:04:04.656Z,53.20
2023-02-24T20:09:15.122Z,49.90
2023-02-24T20:14:19.880Z,76.10
2023-02-24T20:19:21.491Z,82.90
2023-02-24T20:24:22.991Z,202.20
2023-02-24T20:29:24.553Z,157.10
2023-02-24T20:34:26.998Z,84.70
2023-02-24T20:39:28.529Z,62.70
2023-02-24T20:44:30.139Z,54.10
2023-02-24T20:49:31.724Z,48.90
2023-02-24T20:54:33.785Z,57.00
2023-02-24T20:59:40.050Z,53.40
2023-02-24T21:04:41.681Z,46.70
2023-02-24T21:09:43.365Z,58.70
2023-02-24T21:14:45.136Z,50.90
2023-02-24T21:19:46.630Z,58.60
2023-02-24T21:24:48.126Z,56.00
2023-02-24T21:29:49.629Z,45.80
2023-02-24T21:34:51.246Z,54.80
2023-02-24T21:39:53.046Z,43.60
2023-02-24T21:45:02.377Z,40.50
2023-02-24T21:50:07.438Z,53.20
2023-02-24T21:55:10.029Z,53.70
2023-02-24T22:00:20.542Z,43.40
2023-02-24T22:05:24.971Z,48.10
2023-02-24T22:10:26.527Z,45.30
2023-02-24T22:15:27.991Z,42.80
2023-02-24T22:20:30.142Z,29.00
2023-02-24T22:25:32.049Z,35.60
2023-02-24T22:30:33.883Z,26.90
2023-02-24T22:35:36.503Z,17.30
2023-02-24T22:40:39.169Z,24.40
2023-02-24T22:45:40.706Z,31.20
2023-02-24T22:50:42.224Z,22.80
2023-02-24T22:55:47.624Z,30.20
2023-02-24T23:00:50.186Z,41.60
2023-02-24T23:05:59.841Z,29.20
2023-02-24T23:11:07.618Z,39.30
2023-02-24T23:16:14.010Z,39.80
2023-02-24T23:21:22.328Z,32.00
2023-02-24T23:26:40.827Z,41.50
2023-02-24T23:31:43.006Z,34.00
2023-02-24T23:36:47.358Z,18.70
2023-02-24T23:41:49.481Z,20.40
2023-02-24T23:46:50.992Z,19.00
2023-02-24T23:51:52.862Z,22.10
2023-02-24T23:56:54.540Z,35.50
